Meadows, New Hampshire
Current Conditions -  °F | °C
As of 3:52 PM on Friday 31 Oct 2014 (Local Time) from KHIE Reporting Station
Scattered Clouds Scattered Clouds  
Wind Chill: 48°   Ceiling: Unl
Heat Index: 48°   Visibility: 10mi
Dew Point: 27°   Wind: 0mph
Humidity: 44%   Direction: NA
Pressure: 29.98"   Gusts: NA
Location:  44.36°N, 71.46°W
Report Text: KHIE 311952Z AUTO 00000KT 10SM SCT050 09/M03 A2998 RMK AO2 SLP162 T00891028
Loading
Personal Weather Stations






























Interactive Weather Map
Tropical Storm Tracking
New forecast layout! Learn more

10-Day Weather Forecast

Advertisements
Track Severe Weather on mobile